Parker, ID (83438)

4:18 PM MDT on August 29, 2014 (GMT -0600)
Fremont County Courthouse | Change Station
CLOSE
Current Station
Personal Weather Station
Location: St Anthony, ID
Elevation: 4972 ft
Nearby Weather Stations

Elev 4972 ft 43.97 °N, 111.68 °W | Updated 14 seconds ago

Clear
Clear
81.5 °F
Feels Like 80 °F
N
5.0
Wind Variable Wind from SSE
Gusts 11.0 mph

Today
High -- | Low -- °F
--% Chance of Precip.
Yesterday
High -- | Low -- °F
Precip. -- in
6:47 AM 8:07 PM
Waxing Crescent, 17% visible
Pressure 29.89 in
Visibility 10.0 miles
Clouds Clear
Heat Index 80 °F
Dew Point 47 °F
Humidity 29%
Rainfall 0.00 in
Snow Depth Not available.
UV 6 out of 12
Pollen 8.80 out of 12
Air Quality Not available.
Flu Activity Not available.
METAR KRXE 292153Z AUTO 22009G16KT 10SM CLR 27/05 A3002 RMK AO2 SLP121 T02720050

More Conditions Fewer Conditions

Pressure 29.89 in
Visibility 10.0 miles
Clouds Clear
Heat Index 80 °F
Dew Point 47 °F
Humidity 29%
Rainfall 0.00 in
Snow Depth Not available.
UV 6 out of 12
Pollen 8.80 out of 12
Air Quality Not available.
Flu Activity Not available.
METAR KRXE 292153Z AUTO 22009G16KT 10SM CLR 27/05 A3002 RMK AO2 SLP121 T02720050

More Conditions Fewer Conditions

10-Day Weather Forecast

Almanac

Astronomy

Aug. 29, 2014 Rise Set
Actual Time 6:47 AM MDT 8:07 PM MDT
Civil Twilight 6:17 AM MDT 8:37 PM MDT
Nautical Twilight 5:40 AM MDT 9:13 PM MDT
Astronomical Twilight 5:02 AM MDT 9:51 PM MDT
Moon 10:49 AM MDT 9:57 PM MDT
Length of Visible Light 14h 20m
Length of Day
13h 20m
Tomorrow will be 2m 53s shorter.
Waxing Crescent, 17% of the Moon is Illuminated
Today
Waxing Crescent
Sep 2
First Quarter
Sep 8
Full
Sep 15
Last Quarter
Sep 24
New

Today's Extremes

State Highs State Lows

Community

WunderPhotos

Upload Photos

1,748,356 photos uploaded!

Nearby

Snow Depth

Station Depth Elevation
Sheep Mountain 0 in 6570 ft
Somsen Ranch 0 in 6800 ft
Wildhorse Divide 0 in 6490 ft
Bear Canyon 0 in 7900 ft
Emigrant Summit 0 in 7390 ft

Earthquake Activity

City Distance Mag. Time & Date
No recent earthquake activity has been reported nearby.
Minimum magnitude displayed is 2.5.

Coastal Water Temperatures

Place Temperature
No Stations Reporting

Nearby Weather Stations